Ana Sayfa
METAR-TAF:

METAR-TAF

Havaalanları :

Şam Havalimanı

Şam, Suriye

Enlem: 33-25N, Boylam: 036-31E, yükseklik: 608 m

Güncel hava durumu gözlemi

Rapor saat 03:00 UTC de 20 dakika önce yapıldı.
Rüzgar güneybatıdan 8 kt
Sıcaklık 17°C
Nem 82%
Basınç 1013 hPa
Görüş mesafesi 10 km veya daha fazla
1500 m altında bulut yok ve kümülonimbus yok

METAR: OSDI 260300Z 23008KT CAVOK 17/14 Q1013

Saat: 06:20 (03:20 UTC)

Tahmin

Rapor saat 22:00 UTC de 5 saat ve 20 dakika önce yapıldı.
Ayın 26'si saat 00 UTC'den ayın 27'si saat 06 UTC'ye kadar geçerli Tahmin
Rüzgar güneybatıdan 8 kt
Görüş mesafesi 10 km veya daha fazla
1500 m altında bulut yok ve kümülonimbus yok
Geçici
ayın 26'si saat 12 UTC'den ayın 26'si saat 18 UTC'ye kadar
Rüzgar batı/güneybatıdan 15 kt
Görüş mesafesi: 8000 m
3000 ft yükseklikte az bulutlu

TAF: OSDI 252200Z 2600/2706 22008KT CAVOK TEMPO 2612/2618 25015KT 8000 FEW030

4.000'den fazla havaalanı için hava durumu gözlemleri ve tahminleri (METAR ve TAF raporları).

Kullanılabilir istasyonlar harita üzerinde sarı ve kırmızı noktalarla gösterilir.

İstasyonun adını görmek için fareyi noktanın üzerinde gezdirin.

Sonrasında hava gözlem ve tahminlerini görmek için tıklayın.

Haritayı değiştirmek için: yaklaştırmak için siyah artı işaretli yeşil düğmeye ve uzaklaştırmak için de eksi işaretli düğmeye hızla tıklayın; bitişik haritalar için yeşil okları kullanın.


METAR-TAF: